Hilton Head Island, South Carolina
Current Conditions -  °F | °C
As of 4:35 AM on Friday 28 Nov 2014 (Local Time) from KHXD Reporting Station
Clear Clear  
Wind Chill: 33°   Ceiling: Unl
Heat Index: 39°   Visibility: 10mi
Dew Point: 32°   Wind: 9mph
Humidity: 75%   Direction: 320°NW
Pressure: 30.34"   Gusts: NA
Location:  32.15°N, 80.76°W
Report Text: KHXD 280935Z AUTO 32008KT 10SM CLR 04/00 A3034 RMK AO2 P0000
Loading
Personal Weather Stations






























Interactive Weather Map New forecast layout! Learn more

10-Day Weather Forecast

Advertisements
Track Severe Weather on mobile